Latest Weather Observations for Hartz Mountains

IDT60801

Issued at 5:51 am EST Thursday 19 September 2019 (issued every 10 minutes, with the page automatically refreshed every 10 minutes)

About weather observations | Map of weather stations | Latest weather observations for TAS | Other Formats
Station Details ID: 094191 Name: HARTZ MOUNTAIN (KEOGHS PIMPLE) Lat: -43.20 Lon: 146.77 Height: 831.0 m
Data from the previous 72 hours. | See also: Recent months at Hartz Mountains
Date/Time
EST
Temp
°C
App
Temp
°C
Dew
Point
°C
Rel
Hum
%
Delta-T
°C
Wind Press
QNH
hPa
Press
MSL
hPa
Rain since
9am
mm
Dir  Spd
km/h
Gust
km/h
Spd
kts
Gust
kts
19/05:30am 4.6 -3.6 -7.5 41 4.0 WNW 28 33 15 18 - - 0.0
19/05:00am 3.8 -4.1 -4.9 53 3.0 WNW 28 32 15 17 - - 0.0
19/04:30am 3.5 -4.0 -4.2 57 2.7 WNW 26 30 14 16 - - 0.0
19/04:00am 4.4 -3.6 -5.6 48 3.5 WNW 28 35 15 19 - - 0.0
19/03:30am 3.9 -3.6 -4.5 54 3.0 WNW 26 33 14 18 - - 0.0
19/03:00am 3.3 -4.1 -3.3 62 2.4 WNW 26 33 14 18 - - 0.0
19/02:30am 2.8 -3.6 -1.9 71 1.8 W 22 28 12 15 - - 0.0
19/02:00am 2.9 -3.3 -0.2 80 1.2 W 22 24 12 13 - - 0.0
19/01:30am 3.1 -3.0 0.3 82 1.1 W 22 26 12 14 - - 0.0
19/01:00am 2.9 -3.1 1.1 88 0.7 W 22 24 12 13 - - 0.0
19/12:30am 2.5 -2.2 0.9 89 0.6 W 15 19 8 10 - - 0.0
19/12:00am 2.3 -2.0 0.8 90 0.6 NW 13 20 7 11 - - 0.0
 
Date/Time
EST
Temp
°C
App
Temp
°C
Dew
Point
°C
Rel
Hum
%
Delta-T
°C
Wind Press
QNH
hPa
Press
MSL
hPa
Rain since
9am
mm
Dir  Spd
km/h
Gust
km/h
Spd
kts
Gust
kts
18/11:30pm 2.5 -2.5 1.2 91 0.5 NNW 17 20 9 11 - - 0.0
18/11:00pm 2.7 -2.0 1.2 90 0.6 NNW 15 20 8 11 - - 0.0
18/10:30pm 2.9 -0.6 1.3 89 0.7 NNW 9 11 5 6 - - 0.0
18/10:00pm 3.1 0.0 1.5 89 0.7 NNW 7 11 4 6 - - 0.0
18/09:30pm 3.3 0.2 1.3 87 0.8 N 7 9 4 5 - - 0.0
18/09:00pm 3.2 0.6 1.1 86 0.9 WNW 4 9 2 5 - - 0.0
18/08:30pm 3.9 2.1 1.1 82 1.1 CALM 0 0 0 0 - - 0.0
18/08:00pm 3.5 1.7 1.1 84 1.0 CALM 0 0 0 0 - - 0.0
18/07:30pm 4.2 1.1 1.1 80 1.3 NNE 7 7 4 4 - - 0.0
18/07:00pm 4.6 2.8 1.3 79 1.4 CALM 0 0 0 0 - - 0.0
18/06:30pm 4.4 1.3 1.4 81 1.2 ESE 7 9 4 5 - - 0.0
18/06:00pm 5.3 3.2 1.4 76 1.6 SSW 2 6 1 3 - - 0.0
18/05:30pm 5.1 1.0 2.1 81 1.3 SE 13 17 7 9 - - 0.0
18/05:00pm 7.7 5.3 2.0 67 2.5 ESE 4 9 2 5 - - 0.0
18/04:30pm 10.9 6.8 2.0 54 4.0 W 13 20 7 11 - - 0.0
18/04:00pm 11.1 7.5 2.7 56 3.8 WSW 11 19 6 10 - - 0.0
18/03:30pm 10.8 5.8 1.6 53 4.1 W 17 26 9 14 - - 0.0
18/03:00pm 11.5 6.6 1.7 51 4.4 W 17 22 9 12 - - 0.0
18/02:30pm 11.1 5.8 2.9 57 3.7 WNW 20 30 11 16 - - 0.0
18/02:00pm 10.9 5.6 1.7 53 4.1 W 19 30 10 16 - - 0.0
18/01:30pm 11.5 6.7 2.8 55 4.0 WNW 17 28 9 15 - - 0.0
18/01:00pm 10.6 5.5 3.2 60 3.4 WNW 19 28 10 15 - - 0.0
18/12:30pm 9.7 4.4 2.1 59 3.4 WNW 19 30 10 16 - - 0.0
18/12:00pm 9.0 2.9 2.8 65 2.8 NW 24 33 13 18 - - 0.0
18/11:30am 7.9 1.5 1.1 62 2.9 NW 24 35 13 19 - - 0.0
18/11:00am 7.1 1.2 3.7 79 1.5 W 24 39 13 21 - - 0.0
18/10:30am 4.6 -2.6 0.7 76 1.6 W 28 39 15 21 - - 0.0
18/10:00am 5.0 -2.9 0.9 75 1.7 W 32 50 17 27 - - 0.0
18/09:34am 4.0 -5.3 0.9 80 1.3 W 39 57 21 31 - - 0.0
18/09:30am 3.9 -5.8 0.4 78 1.4 W 41 52 22 28 - - 0.0
18/09:00am 3.0 -7.1 0.2 82 1.1 W 43 69 23 37 - - 0.0
18/08:35am 2.7 -7.4 0.3 84 0.9 W 43 61 23 33 - - 0.0
18/08:30am 2.5 -7.6 0.1 84 0.9 W 43 56 23 30 - - 0.0
18/08:00am 2.0 -8.3 0.1 87 0.7 W 44 61 24 33 - - 0.0
18/07:35am 1.8 -8.9 -0.1 87 0.7 W 46 65 25 35 - - 0.0
18/07:30am 1.8 -9.7 0.0 88 0.7 W 50 65 27 35 - - 0.0
18/07:00am 1.7 -11.1 0.1 89 0.6 W 57 76 31 41 - - 0.0
18/06:30am 1.5 -10.4 -0.1 89 0.6 W 52 72 28 39 - - 0.0
18/06:01am 1.5 -8.8 0.2 91 0.5 W 44 63 24 34 - - 0.0
18/06:00am 1.5 -8.8 0.2 91 0.5 W 44 61 24 33 - - 0.0
18/05:30am 1.4 -8.0 0.1 91 0.5 W 39 57 21 31 - - 0.0
18/05:00am 1.3 -8.8 0.1 92 0.5 W 43 63 23 34 - - 0.0
18/04:34am 1.2 -7.7 0.5 95 0.3 W 37 57 20 31 - - 0.0
18/04:30am 1.2 -7.4 0.5 95 0.3 W 35 50 19 27 - - 0.0
18/04:03am 1.3 -7.3 0.1 92 0.5 W 35 54 19 29 - - 0.0
18/04:00am 1.3 -7.7 0.1 92 0.5 W 37 54 20 29 - - 0.0
18/03:38am 1.1 -7.9 0.4 95 0.3 W 37 61 20 33 - - 0.0
18/03:30am 1.1 -7.5 0.4 95 0.3 W 35 48 19 26 - - 0.0
18/03:06am 1.1 -7.1 0.2 94 0.3 W 33 56 18 30 - - 0.0
18/03:00am 1.1 -7.1 0.2 94 0.3 W 33 46 18 25 - - 0.0
18/02:31am 1.2 -8.1 0.3 94 0.3 W 39 57 21 31 - - 0.0
18/02:30am 1.3 -8.4 0.4 94 0.4 W 41 57 22 31 - - 0.0
18/02:00am 1.2 -8.2 0.2 93 0.4 W 39 63 21 34 - - 0.0
18/01:30am 1.2 -7.0 0.3 94 0.3 W 33 56 18 30 - - 0.0
18/01:00am 1.2 -8.2 0.2 93 0.4 W 39 57 21 31 - - 0.0
18/12:30am 1.1 -10.0 0.1 93 0.4 W 48 74 26 40 - - 0.0
18/12:00am 1.0 -10.8 0.1 94 0.3 W 52 72 28 39 - - 0.0
 
Date/Time
EST
Temp
°C
App
Temp
°C
Dew
Point
°C
Rel
Hum
%
Delta-T
°C
Wind Press
QNH
hPa
Press
MSL
hPa
Rain since
9am
mm
Dir  Spd
km/h
Gust
km/h
Spd
kts
Gust
kts
17/11:30pm 1.1 -9.6 0.1 93 0.4 W 46 67 25 36 - - 0.0
17/11:01pm 1.1 -9.6 0.1 93 0.4 W 46 69 25 37 - - 0.0
17/11:00pm 1.2 -9.5 0.2 93 0.4 W 46 63 25 34 - - 0.0
17/10:35pm 1.2 -9.1 0.0 92 0.5 W 44 65 24 35 - - 0.0
17/10:30pm 1.3 -9.0 0.0 91 0.5 W 44 65 24 35 - - 0.0
17/10:26pm 1.2 -9.5 0.0 92 0.5 W 46 74 25 40 - - 0.0
17/10:00pm 1.2 -11.6 -0.1 91 0.5 W 57 78 31 42 - - 0.0
17/09:31pm 1.1 -9.7 -0.2 91 0.5 W 46 65 25 35 - - 0.0
17/09:30pm 1.1 -10.0 -0.2 91 0.5 W 48 65 26 35 - - 0.0
17/09:00pm 1.1 -10.8 -0.5 89 0.6 W 52 72 28 39 - - 0.0
17/08:30pm 1.1 -9.7 -0.2 91 0.5 W 46 69 25 37 - - 0.0
17/08:08pm 1.0 -10.1 -0.1 92 0.4 W 48 69 26 37 - - 0.0
17/08:00pm 0.9 -9.9 -0.2 92 0.4 W 46 63 25 34 - - 0.0
17/07:30pm 1.3 -9.0 0.4 94 0.4 W 44 65 24 35 - - 0.0
17/07:00pm 1.4 -8.7 0.4 93 0.4 W 43 70 23 38 - - 0.0
17/06:30pm 1.6 -9.1 0.0 89 0.6 W 46 69 25 37 - - 0.0
17/06:16pm 1.6 -8.6 -0.5 86 0.8 W 43 61 23 33 - - 0.0
17/06:00pm 1.8 -8.9 -0.1 87 0.7 W 46 63 25 34 - - 0.0
17/05:36pm 2.1 -7.6 0.2 87 0.7 W 41 61 22 33 - - 0.0
17/05:30pm 2.1 -7.3 0.0 86 0.8 W 39 54 21 29 - - 0.0
17/05:00pm 2.4 -6.6 -0.2 83 1.0 W 37 56 20 30 - - 0.0
17/04:59pm 2.4 -6.6 0.0 84 0.9 W 37 56 20 30 - - 0.0
17/04:30pm 4.0 -4.9 0.5 78 1.4 WNW 37 54 20 29 - - 0.0
17/04:00pm 3.4 -5.2 -0.1 78 1.4 WNW 35 54 19 29 - - 0.0
17/03:53pm 3.7 -4.9 0.1 77 1.4 WNW 35 54 19 29 - - 0.0
17/03:30pm 3.7 -5.2 0.6 80 1.2 W 37 52 20 28 - - 0.0
17/03:00pm 4.8 -3.1 0.9 76 1.6 W 32 50 17 27 - - 0.0
17/02:52pm 4.7 -3.5 0.5 74 1.7 W 33 52 18 28 - - 0.0
17/02:30pm 3.7 -5.7 0.1 77 1.4 W 39 56 21 30 - - 0.0
17/02:01pm 4.5 -7.4 -0.3 71 1.9 W 52 70 28 38 - - 0.0
17/02:00pm 4.6 -7.6 0.0 72 1.8 W 54 70 29 38 - - 0.0
17/01:40pm 5.0 -5.3 0.6 73 1.8 W 44 65 24 35 - - 0.0
17/01:30pm 4.6 -5.8 -0.2 71 1.9 W 44 61 24 33 - - 0.0
17/01:07pm 4.7 -3.8 1.2 78 1.4 W 35 54 19 29 - - 0.0
17/01:00pm 4.1 -5.2 0.4 77 1.5 W 39 52 21 28 - - 0.0
17/12:30pm 4.4 -4.8 1.4 81 1.2 W 39 52 21 28 - - 0.0
17/12:02pm 4.0 -6.1 1.4 83 1.1 W 44 63 24 34 - - 0.0
17/12:00pm 3.6 -7.0 0.8 82 1.1 W 46 63 25 34 - - 0.0
17/11:30am 2.9 -8.9 0.5 84 1.0 W 52 72 28 39 - - 0.0
17/11:00am 2.6 -7.5 0.5 86 0.8 W 43 65 23 35 - - 0.0
17/10:30am 2.1 -8.0 0.2 87 0.7 W 43 67 23 36 - - 0.0
17/10:00am 1.3 -9.5 -0.3 89 0.6 W 46 69 25 37 - - 0.0
17/09:31am 0.7 -8.8 -0.6 91 0.5 W 39 59 21 32 - - 0.0
17/09:30am 0.7 -8.8 -0.7 90 0.5 W 39 56 21 30 - - 0.0
17/09:00am 0.7 -9.1 -0.4 92 0.4 W 41 63 22 34 - - 2.0
17/08:32am 0.3 -8.8 -0.5 94 0.3 W 37 56 20 30 - - 2.0
17/08:30am 0.4 -9.0 -0.3 95 0.3 W 39 56 21 30 - - 2.0
17/08:04am 0.2 -10.0 -0.6 94 0.3 W 43 61 23 33 - - 1.6
17/08:00am 0.1 -9.8 -0.6 95 0.3 W 41 57 22 31 - - 1.6
17/07:42am -0.1 -11.3 -0.8 95 0.3 W 48 67 26 36 - - 1.0
17/07:30am -0.3 -12.7 -1.0 95 0.2 W 54 69 29 37 - - 1.0
17/07:10am -0.5 -12.5 -1.1 96 0.2 W 52 74 28 40 - - 1.0
17/07:00am -0.8 -12.1 -1.4 96 0.2 W 48 65 26 35 - - 1.0
17/06:30am -1.0 -12.0 -1.7 95 0.2 W 46 65 25 35 - - 1.0
17/06:02am -1.2 -10.5 -1.8 96 0.2 W 37 57 20 31 - - 1.0
17/06:00am -1.2 -10.1 -1.8 96 0.2 W 35 48 19 26 - - 1.0
17/05:49am -1.2 -10.8 -1.8 96 0.2 W 39 57 21 31 - - 1.0
17/05:30am -1.3 -11.3 -1.9 96 0.2 W 41 57 22 31 - - 1.0
17/05:01am -1.3 -11.7 -1.9 96 0.2 W 43 61 23 33 - - 1.0
17/05:00am -1.3 -11.3 -1.9 96 0.2 W 41 57 22 31 - - 1.0
17/04:30am -1.5 -11.6 -2.2 95 0.2 W 41 59 22 32 - - 1.0
17/04:05am -1.2 -11.7 -2.2 93 0.3 WSW 43 61 23 33 - - 1.0
17/04:00am -1.2 -12.2 -2.2 93 0.3 WSW 46 59 25 32 - - 1.0
17/03:30am -1.4 -11.4 -2.0 96 0.1 WSW 41 56 22 30 - - 1.0
17/03:03am -1.4 -11.4 -1.7 98 0.0 WSW 41 59 22 32 - - 1.0
17/03:00am -1.3 -11.7 -1.6 98 0.0 W 43 59 23 32 - - 1.0
17/02:30am -1.1 -9.9 -1.4 98 0.1 W 35 56 19 30 - - 1.0
17/02:03am -1.3 -8.8 -1.6 98 0.0 W 28 46 15 25 - - 1.0
17/02:00am -1.2 -9.1 -1.5 98 0.1 W 30 46 16 25 - - 1.0
17/01:37am -1.2 -8.7 -1.5 98 0.1 W 28 46 15 25 - - 1.0
17/01:30am -1.2 -8.0 -1.5 98 0.1 W 24 37 13 20 - - 1.0
17/01:16am -1.3 -8.8 -1.6 98 0.0 W 28 46 15 25 - - 1.0
17/01:00am -1.3 -8.1 -1.6 98 0.0 WNW 24 43 13 23 - - 1.0
17/12:46am -1.3 -8.8 -1.6 98 0.0 W 28 54 15 29 - - 1.0
17/12:30am -1.3 -9.2 -1.7 97 0.1 W 30 43 16 23 - - 1.0
17/12:00am -1.2 -8.3 -1.6 97 0.1 W 26 39 14 21 - - 1.0
 
Date/Time
EST
Temp
°C
App
Temp
°C
Dew
Point
°C
Rel
Hum
%
Delta-T
°C
Wind Press
QNH
hPa
Press
MSL
hPa
Rain since
9am
mm
Dir  Spd
km/h
Gust
km/h
Spd
kts
Gust
kts
16/11:30pm -1.4 -8.6 -1.8 97 0.1 W 26 43 14 23 - - 1.0
16/11:00pm -1.4 -9.4 -2.2 94 0.2 WSW 30 44 16 24 - - 1.0
16/10:30pm -1.3 -10.2 -2.1 94 0.2 WSW 35 50 19 27 - - 1.0
16/10:23pm -1.4 -9.8 -2.1 95 0.2 WSW 32 50 17 27 - - 1.0
16/10:00pm -1.3 -9.6 -1.9 96 0.2 WSW 32 41 17 22 - - 1.0
16/09:30pm -1.3 -10.6 -2.1 94 0.2 WSW 37 46 20 25 - - 1.0
16/09:00pm -1.4 -10.7 -2.0 96 0.1 WSW 37 50 20 27 - - 1.0
16/08:30pm -1.4 -10.3 -2.0 96 0.1 WSW 35 48 19 26 - - 1.0
16/08:00pm -1.3 -11.0 -2.1 94 0.2 WSW 39 50 21 27 - - 1.0
16/07:30pm -1.6 -10.0 -2.3 95 0.2 WSW 32 39 17 21 - - 1.0
16/07:00pm -1.6 -10.0 -2.2 96 0.1 WSW 32 43 17 23 - - 1.0
16/06:30pm -1.4 -8.2 -2.0 96 0.1 WSW 24 33 13 18 - - 1.0
16/06:00pm -1.3 -9.7 -2.1 94 0.2 WSW 32 46 17 25 - - 1.0
16/05:30pm -0.4 -6.8 -1.4 93 0.3 WSW 22 41 12 22 - - 1.0
16/05:09pm -0.6 -8.5 -1.6 93 0.3 WSW 30 48 16 26 - - 1.0
16/05:00pm -0.9 -10.2 -1.9 93 0.3 WSW 37 50 20 27 - - 1.0
16/04:33pm -0.5 -9.5 -2.4 87 0.7 WSW 35 56 19 30 - - 1.0
16/04:30pm -0.5 -9.0 -1.9 90 0.5 WSW 33 46 18 25 - - 1.0
16/04:00pm -0.2 -8.5 -1.9 88 0.6 WSW 32 44 17 24 - - 1.0
16/03:30pm -0.4 -9.3 -1.7 91 0.5 WSW 35 46 19 25 - - 0.6
16/03:00pm -1.2 -11.8 -2.0 94 0.2 WSW 44 67 24 36 - - 0.6
16/02:52pm -0.7 -10.3 -1.8 92 0.4 SW 39 57 21 31 - - 0.6
16/02:30pm -0.1 -9.0 -1.7 89 0.6 SW 35 50 19 27 - - 0.6
16/02:00pm 0.1 -9.6 -2.0 86 0.8 SW 39 54 21 29 - - 0.6
16/01:30pm 0.9 -8.6 -0.5 90 0.5 SW 39 59 21 32 - - 0.6
16/01:00pm 0.0 -9.6 -1.7 88 0.6 SW 39 57 21 31 - - 0.6
16/12:30pm -0.5 -11.4 -1.6 92 0.4 SW 46 69 25 37 - - 0.6
16/12:00pm 0.5 -9.0 -0.5 93 0.4 WSW 39 57 21 31 - - 0.6
16/11:32am -0.9 -11.5 -1.7 94 0.2 SW 44 63 24 34 - - 0.6
16/11:30am -1.0 -11.4 -1.8 94 0.2 SW 43 57 23 31 - - 0.6
16/11:00am 0.0 -9.9 -0.8 94 0.3 WSW 41 65 22 35 - - 0.6
16/10:30am -0.6 -11.9 -1.3 95 0.2 SW 48 69 26 37 - - 0.6
16/10:01am -1.3 -12.3 -1.9 96 0.2 SW 46 65 25 35 - - 0.6
16/10:00am -1.3 -12.3 -1.9 96 0.2 SW 46 63 25 34 - - 0.6
16/09:35am -1.1 -10.3 -1.5 97 0.1 SW 37 57 20 31 - - 0.4
16/09:30am -0.8 -10.3 -1.1 98 0.1 SW 39 56 21 30 - - 0.4
16/09:00am -1.2 -10.8 -1.6 97 0.1 WSW 39 59 21 32 - - 3.6
16/08:30am -1.1 -9.6 -1.5 97 0.1 WSW 33 52 18 28 - - 2.8
16/08:02am -1.4 -9.9 -1.7 98 0.0 WSW 33 56 18 30 - - 1.4
16/08:00am -1.4 -9.9 -1.7 98 0.0 WSW 33 48 18 26 - - 1.4
16/07:30am -1.5 -11.5 -1.8 98 0.0 WSW 41 65 22 35 - - 1.4
16/07:00am -1.3 -11.7 -1.6 98 0.0 WSW 43 69 23 37 - - 1.4
16/06:43am -1.2 -10.0 -1.5 98 0.1 SW 35 54 19 29 - - 1.4
16/06:30am -1.2 -11.2 -1.5 98 0.1 WSW 41 57 22 31 - - 1.4
16/06:00am -1.1 -11.0 -1.2 99 0.0 SW 41 61 22 33 - - 1.4

Other formats

Comma delimited format used in spreadsheet applications
http://www.bom.gov.au/fwo/IDT60801/IDT60801.94977.axf

JavaScript Object Notation format (JSON) in row-major order
http://www.bom.gov.au/fwo/IDT60801/IDT60801.94977.json

Data quality

Most of these data are generated automatically and are frequently updated. Quality checks on data are not normally performed. It is possible for incorrect values to appear. Refer to information at About Latest Weather Observations and please check the disclaimer before using these data.